Edmonton Stony Plain Alta., Canada
Current Conditions -  °F | °C
As of 11:00 AM on Thursday 23 Oct 2014 (Local Time) from CWSE Reporting Station
Broken Clouds Broken Clouds  
Wind Chill: 37°   Ceiling: 11800
Heat Index: 42°   Visibility: 15mi
Dew Point: 34°   Wind: 8mph
Humidity: 72%   Direction: 230°SW
Pressure: 29.4"   Gusts: NA
Location:  53.53°N, 114.1°W
Report Text: CWSE 231700Z 23007KT 15SM BKN118 06/01 A2940 RMK SLP966 T00560009 WSI/SWOB
Loading
Personal Weather Stations






























Interactive Weather Map New forecast layout! Learn more

10-Day Weather Forecast

Advertisements
Track Severe Weather on mobile